createdAt,value
2022-11-30T00:00:22.167Z,5.60
2022-11-30T00:02:53.969Z,5.60
2022-11-30T00:05:22.453Z,5.50
2022-11-30T00:07:49.524Z,5.50
2022-11-30T00:10:16.308Z,5.50
2022-11-30T00:12:43.351Z,5.50
2022-11-30T00:15:12.982Z,5.60
2022-11-30T00:17:42.642Z,5.50
2022-11-30T00:20:09.924Z,5.50
2022-11-30T00:22:36.633Z,5.50
2022-11-30T00:25:04.701Z,5.50
2022-11-30T00:27:31.722Z,5.60
2022-11-30T00:29:58.596Z,5.60
2022-11-30T00:32:25.942Z,5.60
2022-11-30T00:34:52.719Z,5.60
2022-11-30T00:37:19.777Z,5.60
2022-11-30T00:39:46.555Z,5.60
2022-11-30T00:42:13.587Z,5.60
2022-11-30T00:44:40.268Z,5.60
2022-11-30T00:47:06.974Z,5.60
2022-11-30T00:49:34.049Z,5.50
2022-11-30T00:52:01.101Z,5.50
2022-11-30T00:54:27.764Z,5.40
2022-11-30T00:56:54.580Z,5.50
2022-11-30T00:59:21.230Z,5.40
2022-11-30T01:01:48.014Z,5.40
2022-11-30T01:04:14.776Z,5.40
2022-11-30T01:06:43.421Z,5.40
2022-11-30T01:09:10.149Z,5.40
2022-11-30T01:11:36.883Z,5.40
2022-11-30T01:14:03.909Z,5.50
2022-11-30T01:16:31.717Z,5.50
2022-11-30T01:18:58.474Z,5.50
2022-11-30T01:21:26.028Z,5.50
2022-11-30T01:23:53.120Z,5.50
2022-11-30T01:26:20.143Z,5.50
2022-11-30T01:28:51.056Z,5.50
2022-11-30T01:31:17.882Z,5.50
2022-11-30T01:33:48.211Z,5.40
2022-11-30T01:36:16.361Z,5.40
2022-11-30T01:38:50.840Z,5.40
2022-11-30T01:41:19.081Z,5.40
2022-11-30T01:43:53.704Z,5.40
2022-11-30T01:46:26.569Z,5.40
2022-11-30T01:49:19.765Z,5.40
2022-11-30T01:51:51.576Z,5.40
2022-11-30T01:54:24.886Z,5.50
2022-11-30T01:56:56.339Z,5.50
2022-11-30T01:59:23.933Z,5.50
2022-11-30T02:01:51.786Z,5.50
2022-11-30T02:04:20.504Z,5.50
2022-11-30T02:06:47.912Z,5.50
2022-11-30T02:09:16.165Z,5.40
2022-11-30T02:11:42.825Z,5.40
2022-11-30T02:14:18.614Z,5.40
2022-11-30T02:16:49.021Z,5.40
2022-11-30T02:19:25.206Z,5.40
2022-11-30T02:22:00.913Z,5.30
2022-11-30T02:24:51.256Z,5.30
2022-11-30T02:27:47.418Z,5.30
2022-11-30T02:30:16.329Z,5.30
2022-11-30T02:32:48.730Z,5.30
2022-11-30T02:35:17.534Z,5.30
2022-11-30T02:37:45.293Z,5.30
2022-11-30T02:40:16.204Z,5.30
2022-11-30T02:42:42.878Z,5.30
2022-11-30T02:45:10.225Z,5.30
2022-11-30T02:47:41.253Z,5.30
2022-11-30T02:50:10.975Z,5.30
2022-11-30T02:52:37.738Z,5.30
2022-11-30T02:55:06.721Z,5.40
2022-11-30T02:57:33.866Z,5.40
2022-11-30T03:00:01.835Z,5.40
2022-11-30T03:02:28.530Z,5.30
2022-11-30T03:04:55.254Z,5.30
2022-11-30T03:07:21.960Z,5.40
2022-11-30T03:09:50.425Z,5.40
2022-11-30T03:12:17.093Z,5.40
2022-11-30T03:14:43.996Z,5.40
2022-11-30T03:17:10.999Z,5.40
2022-11-30T03:19:37.671Z,5.40
2022-11-30T03:22:04.346Z,5.40
2022-11-30T03:24:31.020Z,5.40
2022-11-30T03:26:57.908Z,5.40
2022-11-30T03:29:24.565Z,5.40
2022-11-30T03:31:51.276Z,5.50
2022-11-30T03:34:17.976Z,5.50
2022-11-30T03:36:44.665Z,5.50
2022-11-30T03:39:11.302Z,5.50
2022-11-30T03:41:37.960Z,5.50
2022-11-30T03:44:04.645Z,5.50
2022-11-30T03:46:31.470Z,5.50
2022-11-30T03:48:58.156Z,5.50
2022-11-30T03:51:24.841Z,5.50
2022-11-30T03:53:51.477Z,5.50
2022-11-30T03:56:18.153Z,5.50
2022-11-30T03:58:44.796Z,5.50
2022-11-30T04:01:15.576Z,5.50
2022-11-30T04:03:42.366Z,5.50
2022-11-30T04:06:10.095Z,5.50
2022-11-30T04:08:37.410Z,5.50
2022-11-30T04:11:04.847Z,5.50
2022-11-30T04:13:32.493Z,5.50
2022-11-30T04:15:59.445Z,5.40
2022-11-30T04:18:27.033Z,5.40
2022-11-30T04:20:54.533Z,5.40
2022-11-30T04:23:22.301Z,5.40
2022-11-30T04:25:49.054Z,5.30
2022-11-30T04:28:16.818Z,5.40
2022-11-30T04:30:43.629Z,5.40
2022-11-30T04:33:10.398Z,5.40
2022-11-30T04:35:44.557Z,5.30
2022-11-30T04:38:11.265Z,5.30
2022-11-30T04:40:41.796Z,5.30
2022-11-30T04:43:08.649Z,5.30
2022-11-30T04:45:35.875Z,5.30
2022-11-30T04:48:03.472Z,5.30
2022-11-30T04:50:30.230Z,5.30
2022-11-30T04:52:57.217Z,5.30
2022-11-30T04:55:24.117Z,5.30
2022-11-30T04:57:50.766Z,5.30
2022-11-30T05:00:18.342Z,5.30
2022-11-30T05:02:51.982Z,5.30
2022-11-30T05:05:19.322Z,5.30
2022-11-30T05:07:49.366Z,5.30
2022-11-30T05:10:16.151Z,5.30
2022-11-30T05:12:42.841Z,5.40
2022-11-30T05:15:09.886Z,5.40
2022-11-30T05:17:36.569Z,5.40
2022-11-30T05:20:03.332Z,5.40
2022-11-30T05:22:30.030Z,5.40
2022-11-30T05:24:56.686Z,5.40
2022-11-30T05:27:23.340Z,5.40
2022-11-30T05:29:50.007Z,5.50
2022-11-30T05:32:16.650Z,5.40
2022-11-30T05:34:50.729Z,5.50
2022-11-30T05:37:18.598Z,5.50
2022-11-30T05:39:45.253Z,5.50
2022-11-30T05:42:11.927Z,5.50
2022-11-30T05:44:38.625Z,5.60
2022-11-30T05:47:05.582Z,5.60
2022-11-30T05:49:32.342Z,5.60
2022-11-30T05:51:58.981Z,5.60
2022-11-30T05:54:25.683Z,5.60
2022-11-30T05:56:54.911Z,5.60
2022-11-30T05:59:22.741Z,5.60
2022-11-30T06:01:51.627Z,5.60
2022-11-30T06:04:18.460Z,5.60
2022-11-30T06:06:45.711Z,5.60
2022-11-30T06:09:12.559Z,5.60
2022-11-30T06:11:39.214Z,5.70
2022-11-30T06:14:05.932Z,5.60
2022-11-30T06:16:32.666Z,5.60
2022-11-30T06:18:59.432Z,5.60
2022-11-30T06:21:26.125Z,5.60
2022-11-30T06:23:52.852Z,5.60
2022-11-30T06:26:19.585Z,5.60
2022-11-30T06:28:48.363Z,5.60
2022-11-30T06:31:16.202Z,5.60
2022-11-30T06:33:43.635Z,5.60
2022-11-30T06:36:10.612Z,5.60
2022-11-30T06:38:37.361Z,5.60
2022-11-30T06:41:05.785Z,5.60
2022-11-30T06:43:36.032Z,5.60
2022-11-30T06:46:03.743Z,5.60
2022-11-30T06:48:30.657Z,5.60
2022-11-30T06:50:58.489Z,5.60
2022-11-30T06:53:25.418Z,5.60
2022-11-30T06:55:52.484Z,5.70
2022-11-30T06:58:19.126Z,5.70
2022-11-30T07:00:45.919Z,5.60
2022-11-30T07:03:12.866Z,5.70
2022-11-30T07:05:41.304Z,5.70
2022-11-30T07:08:07.966Z,5.60
2022-11-30T07:10:38.596Z,5.60
2022-11-30T07:13:05.301Z,5.60
2022-11-30T07:15:31.970Z,5.70
2022-11-30T07:18:00.609Z,5.60
2022-11-30T07:20:27.395Z,5.70
2022-11-30T07:22:57.046Z,5.60
2022-11-30T07:25:42.734Z,5.70
2022-11-30T07:28:09.364Z,5.70
2022-11-30T07:30:36.238Z,5.70
2022-11-30T07:33:02.889Z,5.70
2022-11-30T07:35:29.592Z,5.70
2022-11-30T07:37:56.257Z,5.70
2022-11-30T07:40:22.973Z,5.70
2022-11-30T07:42:54.443Z,5.80
2022-11-30T07:45:21.173Z,5.80
2022-11-30T07:47:47.833Z,5.80
2022-11-30T07:50:14.595Z,5.70
2022-11-30T07:52:41.931Z,5.70
2022-11-30T07:55:09.495Z,5.70
2022-11-30T07:57:36.115Z,5.60
2022-11-30T08:00:03.672Z,5.60
2022-11-30T08:02:38.845Z,5.70
2022-11-30T08:05:05.783Z,5.70
2022-11-30T08:07:32.498Z,5.70
2022-11-30T08:09:59.160Z,5.70
2022-11-30T08:12:25.807Z,5.70
2022-11-30T08:15:18.688Z,5.70
2022-11-30T08:17:39.198Z,5.70
2022-11-30T08:20:06.882Z,5.70
2022-11-30T08:22:33.975Z,5.70
2022-11-30T08:25:00.632Z,5.70
2022-11-30T08:27:27.525Z,5.80
2022-11-30T08:29:54.187Z,5.80
2022-11-30T08:32:20.944Z,5.90
2022-11-30T08:34:48.051Z,5.90
2022-11-30T08:37:15.108Z,6.00
2022-11-30T08:39:41.886Z,6.00
2022-11-30T08:42:08.596Z,6.00
2022-11-30T08:44:35.236Z,6.00
2022-11-30T08:47:01.971Z,6.00
2022-11-30T08:49:28.723Z,6.00
2022-11-30T08:54:47.068Z,6.20
2022-11-30T08:57:17.966Z,6.30
2022-11-30T08:59:44.884Z,6.30
2022-11-30T09:02:13.373Z,6.30
2022-11-30T09:04:40.075Z,6.40
2022-11-30T09:07:06.752Z,6.50
2022-11-30T09:09:33.407Z,6.50
2022-11-30T09:12:00.026Z,6.50
2022-11-30T09:14:26.746Z,6.50
2022-11-30T09:16:54.157Z,6.50
2022-11-30T09:19:21.505Z,6.60
2022-11-30T09:21:51.889Z,6.60
2022-11-30T09:24:19.348Z,6.50
2022-11-30T09:26:46.030Z,6.50
2022-11-30T09:29:12.743Z,6.50
2022-11-30T09:31:39.475Z,6.50
2022-11-30T09:34:06.152Z,6.50
2022-11-30T09:36:33.992Z,6.50
2022-11-30T09:39:00.844Z,6.50
2022-11-30T09:41:41.668Z,6.50
2022-11-30T09:44:28.696Z,6.50
2022-11-30T09:47:04.733Z,6.50
2022-11-30T09:49:35.914Z,6.60
2022-11-30T09:52:04.461Z,6.60
2022-11-30T09:54:35.561Z,6.60
2022-11-30T09:57:05.217Z,6.60
2022-11-30T09:59:33.829Z,6.70
2022-11-30T10:02:04.257Z,6.70
2022-11-30T10:04:31.004Z,6.70
2022-11-30T10:06:57.630Z,6.80
2022-11-30T10:09:24.307Z,6.80
2022-11-30T10:11:56.431Z,6.70
2022-11-30T10:14:23.213Z,6.70
2022-11-30T10:17:00.763Z,6.60
2022-11-30T10:19:46.305Z,6.60
2022-11-30T10:22:31.382Z,6.50
2022-11-30T10:25:01.167Z,6.50
2022-11-30T10:27:46.232Z,6.50
2022-11-30T10:30:14.275Z,6.50
2022-11-30T10:32:41.765Z,6.50
2022-11-30T10:35:28.686Z,6.60
2022-11-30T10:37:56.707Z,6.70
2022-11-30T10:40:34.380Z,6.70
2022-11-30T10:43:19.835Z,6.80
2022-11-30T10:45:50.376Z,6.80
2022-11-30T10:48:22.765Z,6.90
2022-11-30T10:50:49.541Z,6.90
2022-11-30T10:53:16.408Z,6.90
2022-11-30T10:55:45.454Z,6.80
2022-11-30T10:58:20.875Z,6.80
2022-11-30T11:00:55.341Z,6.80
2022-11-30T11:03:23.676Z,6.80
2022-11-30T11:06:05.452Z,6.80
2022-11-30T11:08:32.541Z,6.80
2022-11-30T11:10:59.379Z,6.80
2022-11-30T11:13:39.935Z,6.80
2022-11-30T11:16:08.214Z,6.80
2022-11-30T11:18:36.011Z,6.70
2022-11-30T11:21:06.206Z,6.70
2022-11-30T11:23:38.127Z,6.80
2022-11-30T11:26:06.049Z,6.80
2022-11-30T11:28:34.612Z,6.80
2022-11-30T11:31:15.102Z,6.80
2022-11-30T11:33:49.607Z,6.90
2022-11-30T11:36:24.007Z,6.90
2022-11-30T11:38:50.686Z,6.90
2022-11-30T11:41:23.597Z,6.90
2022-11-30T11:43:59.349Z,6.90
2022-11-30T11:46:26.290Z,6.90
2022-11-30T11:49:01.302Z,6.90
2022-11-30T11:51:35.959Z,6.90
2022-11-30T11:54:14.715Z,6.90
2022-11-30T11:56:41.600Z,6.90
2022-11-30T11:59:18.012Z,6.80
2022-11-30T12:01:50.777Z,6.80
2022-11-30T12:04:27.908Z,6.90
2022-11-30T12:06:55.595Z,6.80
2022-11-30T12:09:28.746Z,6.80
2022-11-30T12:11:55.484Z,6.80
2022-11-30T12:14:22.188Z,6.90
2022-11-30T12:17:07.606Z,6.90
2022-11-30T12:19:41.505Z,6.80
2022-11-30T12:22:17.172Z,6.80
2022-11-30T12:25:05.989Z,6.80
2022-11-30T12:27:38.925Z,6.80
2022-11-30T12:30:34.992Z,6.80
2022-11-30T12:33:20.610Z,6.90
2022-11-30T12:35:47.276Z,6.90
2022-11-30T12:38:30.304Z,6.90
2022-11-30T12:41:15.897Z,6.90
2022-11-30T12:43:55.167Z,6.80
2022-11-30T12:46:41.277Z,6.80
2022-11-30T12:49:21.309Z,6.80
2022-11-30T12:52:02.371Z,6.80
2022-11-30T12:54:37.993Z,6.70
2022-11-30T12:57:10.861Z,6.60
2022-11-30T12:59:47.429Z,6.60
2022-11-30T13:02:33.125Z,6.50
2022-11-30T13:05:02.695Z,6.50
2022-11-30T13:07:34.449Z,6.40
2022-11-30T13:10:21.373Z,6.50
2022-11-30T13:12:50.494Z,6.50
2022-11-30T13:15:33.429Z,6.50
2022-11-30T13:18:01.785Z,6.50
2022-11-30T13:20:40.457Z,6.50
2022-11-30T13:23:22.355Z,6.40
2022-11-30T13:26:07.835Z,6.40
2022-11-30T13:28:41.378Z,6.40
2022-11-30T13:31:11.015Z,6.40
2022-11-30T13:33:38.623Z,6.40
2022-11-30T13:36:06.672Z,6.30
2022-11-30T13:38:38.039Z,6.30
2022-11-30T13:41:06.284Z,6.30
2022-11-30T13:43:51.041Z,6.30
2022-11-30T13:46:21.680Z,6.30
2022-11-30T13:48:48.732Z,6.20
2022-11-30T13:51:35.301Z,6.20
2022-11-30T13:54:27.613Z,6.10
2022-11-30T13:56:55.026Z,6.10
2022-11-30T13:59:24.649Z,6.10
2022-11-30T14:01:51.884Z,6.10
2022-11-30T14:04:18.565Z,6.00
2022-11-30T14:06:48.125Z,6.00
2022-11-30T14:09:16.105Z,6.00
2022-11-30T14:11:45.884Z,6.00
2022-11-30T14:14:31.123Z,6.00
2022-11-30T14:16:58.158Z,5.90
2022-11-30T14:19:26.539Z,5.90
2022-11-30T14:21:53.613Z,5.80
2022-11-30T14:24:22.857Z,5.80
2022-11-30T14:26:51.028Z,5.80
2022-11-30T14:29:21.820Z,5.70
2022-11-30T14:31:52.670Z,5.70
2022-11-30T14:34:24.681Z,5.60
2022-11-30T14:36:52.813Z,5.50
2022-11-30T14:39:27.030Z,5.50
2022-11-30T14:41:54.082Z,5.40
2022-11-30T14:44:21.120Z,5.40
2022-11-30T14:46:48.414Z,5.40
2022-11-30T14:49:16.245Z,5.40
2022-11-30T14:51:44.870Z,5.40
2022-11-30T14:54:33.670Z,5.40
2022-11-30T14:57:05.489Z,5.30
2022-11-30T14:59:41.420Z,5.30
2022-11-30T15:02:14.088Z,5.30
2022-11-30T15:04:40.797Z,5.30
2022-11-30T15:07:12.545Z,5.20
2022-11-30T15:09:42.930Z,5.20
2022-11-30T15:12:09.780Z,5.20
2022-11-30T15:14:36.514Z,5.20
2022-11-30T15:17:03.182Z,5.20
2022-11-30T15:19:31.212Z,5.20
2022-11-30T15:21:58.322Z,5.20
2022-11-30T15:24:26.163Z,5.10
2022-11-30T15:26:55.914Z,5.10
2022-11-30T15:29:28.154Z,5.10
2022-11-30T15:31:55.699Z,5.10
2022-11-30T15:34:37.267Z,5.10
2022-11-30T15:37:04.245Z,5.10
2022-11-30T15:39:32.596Z,5.00
2022-11-30T15:42:00.638Z,5.10
2022-11-30T15:44:45.397Z,5.10
2022-11-30T15:47:26.284Z,5.10
2022-11-30T15:49:54.136Z,5.10
2022-11-30T15:52:24.927Z,5.10
2022-11-30T15:54:55.610Z,5.10
2022-11-30T15:57:23.819Z,5.10
2022-11-30T16:00:07.569Z,5.10
2022-11-30T16:02:35.650Z,5.10
2022-11-30T16:05:12.221Z,5.20
2022-11-30T16:07:54.572Z,5.10
2022-11-30T16:10:33.802Z,5.20
2022-11-30T16:13:00.546Z,5.10
2022-11-30T16:15:27.237Z,5.20
2022-11-30T16:17:56.025Z,5.10
2022-11-30T16:20:24.022Z,5.10
2022-11-30T16:22:50.797Z,5.10
2022-11-30T16:25:24.297Z,5.10
2022-11-30T16:27:51.316Z,5.10
2022-11-30T16:30:20.063Z,5.10
2022-11-30T16:32:46.884Z,5.10
2022-11-30T16:35:22.959Z,5.10
2022-11-30T16:37:50.402Z,5.00
2022-11-30T16:40:17.602Z,5.00
2022-11-30T16:42:44.281Z,5.00
2022-11-30T16:45:15.662Z,5.00
2022-11-30T16:47:43.244Z,5.00
2022-11-30T16:50:10.991Z,5.00
2022-11-30T16:52:38.142Z,5.00
2022-11-30T16:55:09.948Z,4.90
2022-11-30T16:57:36.580Z,4.90
2022-11-30T17:00:03.931Z,4.90
2022-11-30T17:02:30.621Z,4.90
2022-11-30T17:04:57.364Z,4.90
2022-11-30T17:07:24.088Z,4.90
2022-11-30T17:09:50.755Z,4.90
2022-11-30T17:12:17.627Z,4.80
2022-11-30T17:14:44.439Z,4.80
2022-11-30T17:17:11.194Z,4.80
2022-11-30T17:19:38.814Z,4.70
2022-11-30T17:22:05.542Z,4.70
2022-11-30T17:24:32.248Z,4.70
2022-11-30T17:26:59.879Z,4.70
2022-11-30T17:29:26.624Z,4.70
2022-11-30T17:31:53.766Z,4.60
2022-11-30T17:34:20.674Z,4.60
2022-11-30T17:36:50.913Z,4.60
2022-11-30T17:39:18.143Z,4.60
2022-11-30T17:41:44.869Z,4.60
2022-11-30T17:44:11.709Z,4.60
2022-11-30T17:46:38.773Z,4.60
2022-11-30T17:49:05.602Z,4.60
2022-11-30T17:51:32.348Z,4.60
2022-11-30T17:53:59.195Z,4.50
2022-11-30T17:56:28.832Z,4.50
2022-11-30T17:58:55.532Z,4.50
2022-11-30T18:01:23.448Z,4.50
2022-11-30T18:03:50.843Z,4.50
2022-11-30T18:06:17.927Z,4.50
2022-11-30T18:08:44.654Z,4.50
2022-11-30T18:11:12.873Z,4.50
2022-11-30T18:13:40.034Z,4.50
2022-11-30T18:16:07.938Z,4.50
2022-11-30T18:18:34.632Z,4.50
2022-11-30T18:21:05.052Z,4.50
2022-11-30T18:23:32.158Z,4.50
2022-11-30T18:25:58.819Z,4.50
2022-11-30T18:28:25.467Z,4.40
2022-11-30T18:30:53.066Z,4.50
2022-11-30T18:33:19.855Z,4.40
2022-11-30T18:35:46.625Z,4.40
2022-11-30T18:38:13.664Z,4.40
2022-11-30T18:40:40.389Z,4.40
2022-11-30T18:43:07.150Z,4.40
2022-11-30T18:45:33.866Z,4.40
2022-11-30T18:48:00.829Z,4.30
2022-11-30T18:50:28.351Z,4.30
2022-11-30T18:52:55.738Z,4.30
2022-11-30T18:55:23.141Z,4.20
2022-11-30T18:57:50.073Z,4.10
2022-11-30T19:00:17.406Z,4.10
2022-11-30T19:02:47.621Z,4.00
2022-11-30T19:05:31.543Z,4.00
2022-11-30T19:07:58.902Z,3.90
2022-11-30T19:10:25.889Z,3.90
2022-11-30T19:12:52.736Z,3.80
2022-11-30T19:15:19.496Z,3.80
2022-11-30T19:17:46.193Z,3.70
2022-11-30T19:20:13.093Z,3.60
2022-11-30T19:22:39.787Z,3.60
2022-11-30T19:25:06.874Z,3.50
2022-11-30T19:27:33.560Z,3.50
2022-11-30T19:30:00.224Z,3.40
2022-11-30T19:32:27.370Z,3.40
2022-11-30T19:34:55.143Z,3.30
2022-11-30T19:37:21.809Z,3.30
2022-11-30T19:39:48.574Z,3.30
2022-11-30T19:42:15.373Z,3.20
2022-11-30T19:44:42.511Z,3.20
2022-11-30T19:47:09.197Z,3.10
2022-11-30T19:49:35.918Z,3.00
2022-11-30T19:52:02.565Z,2.90
2022-11-30T19:54:29.341Z,2.80
2022-11-30T19:56:58.201Z,2.80
2022-11-30T19:59:24.994Z,2.70
2022-11-30T20:01:51.681Z,2.70
2022-11-30T20:04:18.499Z,2.70
2022-11-30T20:06:45.307Z,2.70
2022-11-30T20:09:12.104Z,2.70
2022-11-30T20:11:40.087Z,2.70
2022-11-30T20:14:06.774Z,2.70
2022-11-30T20:16:33.780Z,2.70
2022-11-30T20:19:01.898Z,2.70
2022-11-30T20:21:29.819Z,2.70
2022-11-30T20:23:59.136Z,2.70
2022-11-30T20:26:30.230Z,2.60
2022-11-30T20:28:57.663Z,2.70
2022-11-30T20:31:24.849Z,2.60
2022-11-30T20:33:51.858Z,2.60
2022-11-30T20:36:19.160Z,2.60
2022-11-30T20:38:46.169Z,2.60
2022-11-30T20:41:14.091Z,2.60
2022-11-30T20:43:41.003Z,2.60
2022-11-30T20:46:28.124Z,2.60
2022-11-30T20:48:55.469Z,2.60
2022-11-30T20:51:33.882Z,2.50
2022-11-30T20:54:04.108Z,2.50
2022-11-30T20:56:31.178Z,2.50
2022-11-30T20:59:00.536Z,2.50
2022-11-30T21:01:27.277Z,2.40
2022-11-30T21:03:54.134Z,2.40
2022-11-30T21:06:20.850Z,2.30
2022-11-30T21:08:47.592Z,2.30
2022-11-30T21:11:16.430Z,2.20
2022-11-30T21:13:44.256Z,2.10
2022-11-30T21:16:11.483Z,2.10
2022-11-30T21:18:39.385Z,2.00
2022-11-30T21:21:07.835Z,1.90
2022-11-30T21:23:34.557Z,1.90
2022-11-30T21:26:05.180Z,1.90
2022-11-30T21:28:37.667Z,1.90
2022-11-30T21:31:05.452Z,1.80
2022-11-30T21:33:32.628Z,1.80
2022-11-30T21:35:59.329Z,1.80
2022-11-30T21:38:25.972Z,1.80
2022-11-30T21:40:53.929Z,1.80
2022-11-30T21:43:20.562Z,1.70
2022-11-30T21:45:56.235Z,1.80
2022-11-30T21:48:23.000Z,1.80
2022-11-30T21:50:56.009Z,1.90
2022-11-30T21:53:22.637Z,1.90
2022-11-30T21:55:52.883Z,1.90
2022-11-30T21:58:22.521Z,1.90
2022-11-30T22:00:56.127Z,1.90
2022-11-30T22:03:23.006Z,1.90
2022-11-30T22:06:03.431Z,2.00
2022-11-30T22:08:30.431Z,2.00
2022-11-30T22:11:01.558Z,2.00
2022-11-30T22:13:31.844Z,2.00
2022-11-30T22:16:03.042Z,2.00
2022-11-30T22:18:29.855Z,1.90
2022-11-30T22:21:02.099Z,1.90
2022-11-30T22:23:28.755Z,2.00
2022-11-30T22:26:06.517Z,2.00
2022-11-30T22:28:33.181Z,1.90
2022-11-30T22:31:06.700Z,1.90
2022-11-30T22:33:37.299Z,1.90
2022-11-30T22:36:04.936Z,1.90
2022-11-30T22:38:31.986Z,1.90
2022-11-30T22:41:05.173Z,1.90
2022-11-30T22:43:31.967Z,1.90
2022-11-30T22:46:02.096Z,1.90
2022-11-30T22:48:29.784Z,1.90
2022-11-30T22:50:56.403Z,1.90
2022-11-30T22:53:23.123Z,2.00
2022-11-30T22:55:49.825Z,2.10
2022-11-30T22:58:16.542Z,2.10
2022-11-30T23:00:43.260Z,2.10
2022-11-30T23:03:10.112Z,2.20
2022-11-30T23:05:36.936Z,2.20
2022-11-30T23:08:03.731Z,2.30
2022-11-30T23:10:30.407Z,2.30
2022-11-30T23:12:59.848Z,2.30
2022-11-30T23:15:26.935Z,2.30
2022-11-30T23:17:54.070Z,2.30
2022-11-30T23:20:22.430Z,2.30
2022-11-30T23:22:49.101Z,2.30
2022-11-30T23:25:16.790Z,2.30
2022-11-30T23:27:43.458Z,2.30
2022-11-30T23:30:10.229Z,2.20
2022-11-30T23:32:37.028Z,2.20
2022-11-30T23:35:03.725Z,2.20
2022-11-30T23:37:30.488Z,2.20
2022-11-30T23:39:57.123Z,2.20
2022-11-30T23:42:23.791Z,2.20
2022-11-30T23:45:00.842Z,2.30
2022-11-30T23:47:27.621Z,2.30
2022-11-30T23:49:54.329Z,2.30
2022-11-30T23:52:20.982Z,2.30
2022-11-30T23:54:47.680Z,2.30
2022-11-30T23:57:14.339Z,2.30
2022-11-30T23:59:41.260Z,2.30
